Time;durP1;ratioP1;P1;durP2;ratioP2;P2;SDS_P1;SDS_P2;PMS_P1;PMS_P2;Temp;Humidity;BMP_temperature;BMP_pressure;BME280_temperature;BME280_humidity;BME280_pressure;Samples;Min_cycle;Max_cycle;Signal;HPM_P1;HPM_P2
2022/01/13 00:01:33;;;;;;;14.40;7.73;;;;;;;;;;10368232;28;20470;-63
2022/01/13 00:06:34;;;;;;;13.35;7.82;;;;;;;;;;10367460;28;20585;-64
2022/01/13 00:11:35;;;;;;;12.90;7.27;;;;;;;;;;10373523;28;20049;-66
2022/01/13 00:21:38;;;;;;;13.00;7.03;;;;;;;;;;10372809;28;20121;-62
2022/01/13 00:26:41;;;;;;;12.65;6.90;;;;;;;;;;10375685;28;20030;-62
2022/01/13 00:31:42;;;;;;;14.10;7.63;;;;;;;;;;10369474;28;20458;-56
2022/01/13 00:36:42;;;;;;;10.85;7.50;;;;;;;;;;10361504;28;20033;-65
2022/01/13 00:41:43;;;;;;;12.82;7.38;;;;;;;;;;10372495;28;20037;-62
2022/01/13 00:46:46;;;;;;;12.07;6.75;;;;;;;;;;10374091;28;20033;-64
2022/01/13 00:51:46;;;;;;;11.90;6.75;;;;;;;;;;10373763;28;20524;-64
2022/01/13 00:56:47;;;;;;;19.63;7.10;;;;;;;;;;10374169;28;20079;-64
2022/01/13 01:01:50;;;;;;;12.57;6.93;;;;;;;;;;10373945;28;20026;-64
2022/01/13 01:06:51;;;;;;;10.70;6.28;;;;;;;;;;10374218;28;20037;-61
2022/01/13 01:11:53;;;;;;;10.57;6.53;;;;;;;;;;10373576;28;20458;-65
2022/01/13 01:16:53;;;;;;;9.63;6.63;;;;;;;;;;10373388;28;20045;-65
2022/01/13 01:22:41;;;;;;;12.53;6.37;;;;;;;;;;10368748;28;20092;-63
2022/01/13 01:27:20;;;;;;;9.65;6.32;;;;;;;;;;10363903;28;20486;-64
2022/01/13 01:32:21;;;;;;;14.63;6.40;;;;;;;;;;10373117;28;20018;-66
2022/01/13 01:37:26;;;;;;;11.32;6.10;;;;;;;;;;10372691;28;20030;-62
2022/01/13 01:42:27;;;;;;;10.25;6.35;;;;;;;;;;10372785;28;20025;-63
2022/01/13 01:47:29;;;;;;;9.73;5.80;;;;;;;;;;10371985;28;20474;-66
2022/01/13 01:52:30;;;;;;;9.38;6.55;;;;;;;;;;10371830;28;20497;-63
2022/01/13 01:57:30;;;;;;;14.13;6.53;;;;;;;;;;10371821;28;20042;-63
2022/01/13 02:02:31;;;;;;;9.07;5.93;;;;;;;;;;10370412;28;20450;-63
2022/01/13 02:07:31;;;;;;;9.27;6.20;;;;;;;;;;10371030;28;20560;-66
2022/01/13 02:12:38;;;;;;;12.00;6.03;;;;;;;;;;10371020;28;20749;-65
2022/01/13 02:17:40;;;;;;;13.10;5.60;;;;;;;;;;10370860;28;20398;-64
2022/01/13 02:22:41;;;;;;;11.15;5.78;;;;;;;;;;10370789;28;20030;-64
2022/01/13 02:27:42;;;;;;;9.30;6.17;;;;;;;;;;10367457;28;20469;-62
2022/01/13 02:32:43;;;;;;;9.88;5.80;;;;;;;;;;10366686;28;20060;-64
2022/01/13 02:37:44;;;;;;;10.80;5.97;;;;;;;;;;10370345;28;20470;-66
2022/01/13 02:42:44;;;;;;;8.73;6.43;;;;;;;;;;10370524;28;20081;-66
2022/01/13 02:52:45;;;;;;;8.00;5.57;;;;;;;;;;10369717;28;20443;-64
2022/01/13 02:57:45;;;;;;;7.03;5.40;;;;;;;;;;10369577;28;20026;-65
2022/01/13 03:02:47;;;;;;;7.97;5.83;;;;;;;;;;10369161;28;20033;-63
2022/01/13 03:07:48;;;;;;;10.90;5.40;;;;;;;;;;10369665;28;20523;-66
2022/01/13 03:12:48;;;;;;;7.50;5.18;;;;;;;;;;10369349;28;20045;-65
2022/01/13 03:17:49;;;;;;;12.13;5.85;;;;;;;;;;10368639;28;20046;-64
2022/01/13 03:22:49;;;;;;;9.43;6.30;;;;;;;;;;10368709;28;20049;-60
2022/01/13 03:28:03;;;;;;;6.27;4.93;;;;;;;;;;10368464;28;20522;-61
2022/01/13 03:33:03;;;;;;;7.38;5.03;;;;;;;;;;10365213;28;20443;-62
2022/01/13 03:38:05;;;;;;;9.38;5.60;;;;;;;;;;10350306;28;20021;-65
2022/01/13 03:43:06;;;;;;;7.50;5.03;;;;;;;;;;10362955;28;20026;-61
2022/01/13 03:48:07;;;;;;;8.98;5.40;;;;;;;;;;10367618;28;20041;-64
2022/01/13 03:53:20;;;;;;;8.95;5.10;;;;;;;;;;10367963;28;20021;-61
2022/01/13 03:58:39;;;;;;;6.95;5.40;;;;;;;;;;10368294;28;20109;-63
2022/01/13 04:03:39;;;;;;;7.38;5.22;;;;;;;;;;10367539;28;20030;-62
2022/01/13 04:08:40;;;;;;;8.52;5.20;;;;;;;;;;10367574;28;20433;-62
2022/01/13 04:13:47;;;;;;;8.52;5.00;;;;;;;;;;10366008;28;20092;-59
2022/01/13 04:18:50;;;;;;;7.63;5.10;;;;;;;;;;10368065;28;20030;-63
2022/01/13 04:23:53;;;;;;;7.28;4.70;;;;;;;;;;10367666;28;20136;-63
2022/01/13 04:29:19;;;;;;;7.80;5.38;;;;;;;;;;10366980;28;20169;-58
2022/01/13 04:34:20;;;;;;;7.35;5.25;;;;;;;;;;10367451;28;20030;-64
2022/01/13 04:39:20;;;;;;;7.30;5.13;;;;;;;;;;10367106;28;20095;-62
2022/01/13 04:44:23;;;;;;;7.05;5.13;;;;;;;;;;10364053;28;20109;-64
2022/01/13 04:49:23;;;;;;;5.80;4.30;;;;;;;;;;10363472;28;20057;-57
2022/01/13 04:54:24;;;;;;;7.97;4.82;;;;;;;;;;10367159;28;20022;-64
2022/01/13 04:59:24;;;;;;;6.10;4.50;;;;;;;;;;10373095;28;20068;-61
2022/01/13 05:04:24;;;;;;;9.87;4.70;;;;;;;;;;10373614;28;21065;-64
2022/01/13 05:09:25;;;;;;;5.60;4.50;;;;;;;;;;10373744;28;20521;-62
2022/01/13 05:14:26;;;;;;;7.10;4.60;;;;;;;;;;10373010;28;20212;-61
2022/01/13 05:19:35;;;;;;;6.35;4.63;;;;;;;;;;10373728;28;20033;-64
2022/01/13 05:24:35;;;;;;;7.65;4.80;;;;;;;;;;10373509;28;20109;-62
2022/01/13 05:29:35;;;;;;;7.50;4.00;;;;;;;;;;10372831;28;20480;-59
2022/01/13 05:34:36;;;;;;;6.57;4.30;;;;;;;;;;10372514;28;20444;-63
2022/01/13 05:39:36;;;;;;;6.33;4.53;;;;;;;;;;10372515;28;20021;-61
2022/01/13 05:44:38;;;;;;;5.60;4.33;;;;;;;;;;10372251;28;20076;-64
2022/01/13 05:49:40;;;;;;;6.05;3.83;;;;;;;;;;10368868;28;20509;-64
2022/01/13 05:54:41;;;;;;;5.82;4.10;;;;;;;;;;10371536;28;20514;-63
2022/01/13 05:59:41;;;;;;;5.47;3.92;;;;;;;;;;10368614;28;20030;-62
2022/01/13 06:04:41;;;;;;;6.27;4.27;;;;;;;;;;10371134;28;20121;-66
2022/01/13 06:09:42;;;;;;;7.83;4.87;;;;;;;;;;10371552;28;20887;-63
2022/01/13 06:14:43;;;;;;;7.47;4.60;;;;;;;;;;10369912;28;20471;-61
2022/01/13 06:19:43;;;;;;;5.72;4.13;;;;;;;;;;10371216;28;20091;-64
2022/01/13 06:24:43;;;;;;;5.20;4.13;;;;;;;;;;10370893;28;20173;-64
2022/01/13 06:29:44;;;;;;;4.87;4.07;;;;;;;;;;10370455;28;20855;-65
2022/01/13 06:34:44;;;;;;;9.73;4.77;;;;;;;;;;10370806;28;20430;-66
2022/01/13 06:39:46;;;;;;;19.47;4.40;;;;;;;;;;10352676;28;20432;-63
2022/01/13 06:44:46;;;;;;;8.25;4.90;;;;;;;;;;10368083;28;20571;-66
2022/01/13 06:49:46;;;;;;;6.13;4.17;;;;;;;;;;10369240;28;20064;-65
2022/01/13 06:54:48;;;;;;;14.55;4.22;;;;;;;;;;10369400;28;20582;-64
2022/01/13 06:59:48;;;;;;;10.75;4.60;;;;;;;;;;10366522;28;20037;-66
2022/01/13 07:04:49;;;;;;;18.65;4.35;;;;;;;;;;10365694;28;20022;-65
2022/01/13 07:09:50;;;;;;;8.45;3.80;;;;;;;;;;10368782;28;20037;-59
2022/01/13 07:14:50;;;;;;;10.17;4.20;;;;;;;;;;10368728;28;20049;-65
2022/01/13 07:19:51;;;;;;;11.80;4.50;;;;;;;;;;10367540;28;20438;-63
2022/01/13 07:24:52;;;;;;;26.33;10.93;;;;;;;;;;10366407;28;20057;-54
2022/01/13 07:29:52;;;;;;;16.00;7.07;;;;;;;;;;10368000;28;20113;-55
2022/01/13 07:34:52;;;;;;;11.63;7.13;;;;;;;;;;10367043;28;20105;-56
2022/01/13 07:39:53;;;;;;;24.67;7.60;;;;;;;;;;10367255;28;20436;-52
2022/01/13 07:44:53;;;;;;;14.30;7.80;;;;;;;;;;10368405;28;20532;-50
2022/01/13 07:49:53;;;;;;;15.93;7.33;;;;;;;;;;10368227;28;20036;-50
2022/01/13 07:54:54;;;;;;;10.93;7.85;;;;;;;;;;10367428;28;20454;-56
2022/01/13 07:59:56;;;;;;;14.97;8.37;;;;;;;;;;10367580;28;20022;-51
2022/01/13 08:04:56;;;;;;;17.65;7.18;;;;;;;;;;10363923;28;20474;-48
2022/01/13 08:09:57;;;;;;;17.87;8.00;;;;;;;;;;10367610;28;20049;-49
2022/01/13 08:14:57;;;;;;;25.10;8.23;;;;;;;;;;10364184;28;20459;-50
2022/01/13 08:19:58;;;;;;;20.93;8.03;;;;;;;;;;10367179;28;20030;-54
2022/01/13 08:24:58;;;;;;;29.00;8.67;;;;;;;;;;10367513;28;20494;-49
2022/01/13 08:29:58;;;;;;;19.77;7.80;;;;;;;;;;10367083;28;20044;-49
2022/01/13 08:34:59;;;;;;;18.23;8.57;;;;;;;;;;10374135;28;20030;-54
2022/01/13 08:40:00;;;;;;;16.13;8.17;;;;;;;;;;10374898;28;20022;-52
2022/01/13 08:45:05;;;;;;;21.67;8.32;;;;;;;;;;10374504;28;20025;-57
2022/01/13 08:50:07;;;;;;;21.77;9.23;;;;;;;;;;10374722;28;20083;-50
2022/01/13 08:55:08;;;;;;;27.60;9.35;;;;;;;;;;10373886;28;20032;-55
2022/01/13 09:00:10;;;;;;;20.17;8.82;;;;;;;;;;10373709;28;20117;-52
2022/01/13 09:05:13;;;;;;;21.63;9.35;;;;;;;;;;10373691;28;20022;-61
2022/01/13 09:10:15;;;;;;;21.77;9.13;;;;;;;;;;10373351;28;20030;-51
2022/01/13 09:15:29;;;;;;;19.60;9.95;;;;;;;;;;10366610;28;20386;-50
2022/01/13 09:20:30;;;;;;;20.90;9.95;;;;;;;;;;10372477;28;20461;-50
2022/01/13 09:25:30;;;;;;;31.53;11.10;;;;;;;;;;10372559;28;20050;-61
2022/01/13 09:30:31;;;;;;;22.75;10.65;;;;;;;;;;10373091;28;20457;-50
2022/01/13 09:35:32;;;;;;;25.25;10.88;;;;;;;;;;10371872;28;20033;-57
2022/01/13 09:40:53;;;;;;;23.88;11.38;;;;;;;;;;10371489;28;20026;-55
2022/01/13 09:45:55;;;;;;;21.70;11.13;;;;;;;;;;10284174;28;20085;-53
2022/01/13 09:50:56;;;;;;;24.75;10.95;;;;;;;;;;10284201;28;20034;-50
2022/01/13 09:55:56;;;;;;;21.48;11.40;;;;;;;;;;10284868;28;20526;-50
2022/01/13 10:00:57;;;;;;;22.98;11.18;;;;;;;;;;10283886;28;20042;-50
2022/01/13 10:06:01;;;;;;;20.67;11.48;;;;;;;;;;10284152;28;20402;-49
2022/01/13 10:11:25;;;;;;;21.13;11.50;;;;;;;;;;10283823;28;20122;-49
2022/01/13 10:16:28;;;;;;;22.02;11.15;;;;;;;;;;10279987;28;20054;-57
2022/01/13 10:21:28;;;;;;;17.10;10.38;;;;;;;;;;10322164;28;20069;-49
2022/01/13 10:26:30;;;;;;;19.52;10.60;;;;;;;;;;10366808;28;20121;-48
2022/01/13 10:31:51;;;;;;;17.48;10.38;;;;;;;;;;10370056;28;20037;-48
2022/01/13 10:37:11;;;;;;;17.30;10.65;;;;;;;;;;10369599;28;20382;-63
2022/01/13 10:47:36;;;;;;;18.63;10.38;;;;;;;;;;10368049;28;20556;-48
2022/01/13 10:52:37;;;;;;;17.55;9.45;;;;;;;;;;10369197;28;20030;-57
2022/01/13 10:57:42;;;;;;;18.10;9.35;;;;;;;;;;10369286;28;20029;-55
2022/01/13 11:02:45;;;;;;;19.02;10.00;;;;;;;;;;10369940;28;20061;-50
2022/01/13 11:07:45;;;;;;;17.27;9.27;;;;;;;;;;10369257;28;20065;-48
2022/01/13 11:12:54;;;;;;;19.63;9.53;;;;;;;;;;10368099;28;20040;-60
2022/01/13 11:17:55;;;;;;;;;;;;;;;;;;10369998;28;20470;-55
2022/01/13 11:22:57;;;;;;;14.27;9.10;;;;;;;;;;10365393;28;19924;-54
2022/01/13 11:27:57;;;;;;;16.15;8.95;;;;;;;;;;10366143;28;20025;-51
2022/01/13 11:32:58;;;;;;;13.43;9.38;;;;;;;;;;10368418;28;20026;-49
2022/01/13 11:38:03;;;;;;;15.45;8.40;;;;;;;;;;10368294;28;20033;-53
2022/01/13 11:43:07;;;;;;;16.30;9.15;;;;;;;;;;10367614;28;20030;-49
2022/01/13 11:48:16;;;;;;;12.75;8.65;;;;;;;;;;10368113;28;20111;-49
2022/01/13 11:53:22;;;;;;;17.60;9.15;;;;;;;;;;10368503;28;20026;-50
2022/01/13 11:58:28;;;;;;;13.15;8.55;;;;;;;;;;10368232;28;20374;-49
2022/01/13 12:03:33;;;;;;;16.45;8.45;;;;;;;;;;10367881;28;20061;-50
2022/01/13 12:08:45;;;;;;;15.07;9.10;;;;;;;;;;10374649;28;20087;-54
2022/01/13 12:13:47;;;;;;;11.98;8.23;;;;;;;;;;10375552;28;20490;-52
2022/01/13 12:18:59;;;;;;;16.25;8.45;;;;;;;;;;10375696;28;20379;-49
2022/01/13 12:24:00;;;;;;;13.45;8.50;;;;;;;;;;10376501;28;20025;-51
2022/01/13 12:29:21;;;;;;;12.63;7.93;;;;;;;;;;10372620;28;20030;-54
2022/01/13 12:34:28;;;;;;;14.52;7.97;;;;;;;;;;10371503;28;20065;-51
2022/01/13 12:39:28;;;;;;;11.90;7.90;;;;;;;;;;10375026;28;20338;-56
2022/01/13 12:49:49;;;;;;;14.07;8.70;;;;;;;;;;10374298;28;20038;-49
2022/01/13 12:54:49;;;;;;;14.73;8.00;;;;;;;;;;10374353;28;20026;-49
2022/01/13 12:59:57;;;;;;;20.10;8.05;;;;;;;;;;10373973;28;20439;-50
2022/01/13 13:04:57;;;;;;;18.25;8.50;;;;;;;;;;10374793;28;20104;-49
2022/01/13 13:10:06;;;;;;;12.93;7.60;;;;;;;;;;10373731;28;20088;-51
2022/01/13 13:20:32;;;;;;;18.60;7.97;;;;;;;;;;10372893;28;20536;-50
2022/01/13 13:25:39;;;;;;;14.82;7.40;;;;;;;;;;10372861;28;20091;-49
2022/01/13 13:30:47;;;;;;;10.55;7.03;;;;;;;;;;10373003;28;20034;-59
2022/01/13 13:35:58;;;;;;;13.75;6.60;;;;;;;;;;10369166;28;20512;-48
2022/01/13 13:40:58;;;;;;;11.35;6.22;;;;;;;;;;10369900;28;20117;-50
2022/01/13 13:46:03;;;;;;;9.07;6.57;;;;;;;;;;10366654;28;20044;-50
2022/01/13 13:51:03;;;;;;;8.38;6.10;;;;;;;;;;10370026;28;20772;-49
2022/01/13 13:56:05;;;;;;;10.27;6.57;;;;;;;;;;10371696;28;20576;-49
2022/01/13 14:01:06;;;;;;;7.25;5.90;;;;;;;;;;10372193;28;20523;-52
2022/01/13 14:06:07;;;;;;;10.10;6.00;;;;;;;;;;10371767;28;20030;-60
2022/01/13 14:11:08;;;;;;;8.25;5.68;;;;;;;;;;10372142;28;20057;-52
2022/01/13 14:16:09;;;;;;;14.48;6.10;;;;;;;;;;10371017;28;20059;-63
2022/01/13 14:21:09;;;;;;;9.30;6.03;;;;;;;;;;10370658;28;20362;-56
2022/01/13 14:26:14;;;;;;;9.38;5.75;;;;;;;;;;10371011;28;20542;-62
2022/01/13 14:31:15;;;;;;;7.85;5.07;;;;;;;;;;10370060;28;20026;-63
2022/01/13 14:36:20;;;;;;;8.63;5.10;;;;;;;;;;10370834;28;20034;-61
2022/01/13 14:41:26;;;;;;;8.75;5.35;;;;;;;;;;10367706;28;20053;-49
2022/01/13 14:46:28;;;;;;;11.00;5.63;;;;;;;;;;10369459;28;20034;-58
2022/01/13 14:51:28;;;;;;;8.57;5.35;;;;;;;;;;10366744;28;20250;-57
2022/01/13 14:56:29;;;;;;;8.48;4.93;;;;;;;;;;10369341;28;20611;-58
2022/01/13 15:01:30;;;;;;;7.68;5.40;;;;;;;;;;10368931;28;20058;-62
2022/01/13 15:06:30;;;;;;;8.05;5.07;;;;;;;;;;10369104;28;20533;-50
2022/01/13 15:11:31;;;;;;;8.80;5.18;;;;;;;;;;10368699;28;20528;-52
2022/01/13 15:16:31;;;;;;;6.03;4.90;;;;;;;;;;10368422;28;20049;-59
2022/01/13 15:21:32;;;;;;;6.68;5.03;;;;;;;;;;10367801;28;20026;-52
2022/01/13 15:26:32;;;;;;;6.53;5.07;;;;;;;;;;10367874;28;20057;-53
2022/01/13 15:31:33;;;;;;;6.20;4.83;;;;;;;;;;10366604;28;20032;-57
2022/01/13 15:36:34;;;;;;;6.18;4.35;;;;;;;;;;10367346;28;20539;-50
2022/01/13 15:41:35;;;;;;;7.60;4.80;;;;;;;;;;10367467;28;20458;-53
2022/01/13 15:46:36;;;;;;;7.75;4.97;;;;;;;;;;10367446;28;20045;-52
2022/01/13 15:51:36;;;;;;;5.93;4.07;;;;;;;;;;10361322;28;20037;-60
2022/01/13 15:56:37;;;;;;;6.90;5.30;;;;;;;;;;10367488;28;20562;-59
2022/01/13 16:01:37;;;;;;;6.93;4.53;;;;;;;;;;10367394;28;20107;-49
2022/01/13 16:06:37;;;;;;;7.88;4.20;;;;;;;;;;10367462;28;20025;-60
2022/01/13 16:11:38;;;;;;;5.60;4.13;;;;;;;;;;10367352;28;20037;-53
2022/01/13 16:16:38;;;;;;;5.97;4.13;;;;;;;;;;10367547;28;20456;-53
2022/01/13 16:21:39;;;;;;;7.10;4.50;;;;;;;;;;10367020;28;20026;-49
2022/01/13 16:26:39;;;;;;;7.57;4.55;;;;;;;;;;10366224;28;20954;-52
2022/01/13 16:31:40;;;;;;;7.17;4.40;;;;;;;;;;10366698;28;20022;-52
2022/01/13 16:36:40;;;;;;;6.95;4.30;;;;;;;;;;10366824;28;20467;-51
2022/01/13 16:41:41;;;;;;;7.90;4.23;;;;;;;;;;10366724;28;20477;-59
2022/01/13 16:46:41;;;;;;;12.60;4.60;;;;;;;;;;10366290;28;20586;-50
2022/01/13 16:51:41;;;;;;;10.63;3.87;;;;;;;;;;10362178;28;20060;-53
2022/01/13 16:56:42;;;;;;;7.80;4.80;;;;;;;;;;10369498;28;20459;-60
2022/01/13 17:01:42;;;;;;;7.33;4.30;;;;;;;;;;10373486;28;20452;-50
2022/01/13 17:06:44;;;;;;;12.47;4.60;;;;;;;;;;10373671;28;20843;-53
2022/01/13 17:11:45;;;;;;;7.43;4.78;;;;;;;;;;10373172;28;20022;-50
2022/01/13 17:16:45;;;;;;;7.53;4.32;;;;;;;;;;10371322;28;20096;-49
2022/01/13 17:21:46;;;;;;;9.63;4.32;;;;;;;;;;10372611;28;20034;-49
2022/01/13 17:26:47;;;;;;;7.30;4.18;;;;;;;;;;10372191;28;20413;-50
2022/01/13 17:31:48;;;;;;;6.57;4.43;;;;;;;;;;10372016;28;20025;-50
2022/01/13 17:36:48;;;;;;;6.82;4.70;;;;;;;;;;10371833;28;20025;-50
2022/01/13 17:41:50;;;;;;;10.80;4.80;;;;;;;;;;10371619;28;20032;-49
2022/01/13 17:46:51;;;;;;;7.10;4.25;;;;;;;;;;10371401;28;20550;-51
2022/01/13 17:51:51;;;;;;;7.07;4.13;;;;;;;;;;10372285;28;20025;-50
2022/01/13 17:56:52;;;;;;;6.73;4.87;;;;;;;;;;10367633;28;20034;-52
2022/01/13 18:01:53;;;;;;;10.82;5.50;;;;;;;;;;10353546;28;21055;-56
2022/01/13 18:06:54;;;;;;;13.50;5.60;;;;;;;;;;10367219;28;20087;-50
2022/01/13 18:11:54;;;;;;;9.93;5.63;;;;;;;;;;10371498;28;20099;-49
2022/01/13 18:16:56;;;;;;;11.00;5.82;;;;;;;;;;10369517;28;20129;-50
2022/01/13 18:21:56;;;;;;;11.73;5.95;;;;;;;;;;10370350;28;20030;-60
2022/01/13 18:26:57;;;;;;;9.77;5.80;;;;;;;;;;10365365;28;20397;-53
2022/01/13 18:31:57;;;;;;;7.97;5.15;;;;;;;;;;10367585;28;20053;-51
2022/01/13 18:36:58;;;;;;;7.72;5.82;;;;;;;;;;10368077;28;20034;-51
2022/01/13 18:42:00;;;;;;;17.73;6.27;;;;;;;;;;10368711;28;20358;-48
2022/01/13 18:47:02;;;;;;;11.93;6.32;;;;;;;;;;10368921;28;20452;-50
2022/01/13 18:52:03;;;;;;;12.93;6.10;;;;;;;;;;10368676;28;20204;-48
2022/01/13 18:57:04;;;;;;;10.73;6.13;;;;;;;;;;10369615;28;20189;-50
2022/01/13 19:02:05;;;;;;;11.50;5.97;;;;;;;;;;10368854;28;20033;-50
2022/01/13 19:07:06;;;;;;;10.50;6.28;;;;;;;;;;10365097;28;20026;-51
2022/01/13 19:12:08;;;;;;;21.30;7.15;;;;;;;;;;10365696;28;20112;-52
2022/01/13 19:17:19;;;;;;;21.08;7.90;;;;;;;;;;10367582;28;20111;-52
2022/01/13 19:22:19;;;;;;;17.38;7.55;;;;;;;;;;10366352;28;20485;-54
2022/01/13 19:27:20;;;;;;;14.03;6.60;;;;;;;;;;10366845;28;20030;-55
2022/01/13 19:32:20;;;;;;;14.77;7.10;;;;;;;;;;10366123;28;20534;-55
2022/01/13 19:37:21;;;;;;;17.87;6.90;;;;;;;;;;10365507;28;20108;-51
2022/01/13 19:42:21;;;;;;;19.70;6.50;;;;;;;;;;10368491;28;20456;-51
2022/01/13 19:47:22;;;;;;;13.55;7.07;;;;;;;;;;10367599;28;20026;-49
2022/01/13 19:52:22;;;;;;;20.10;7.50;;;;;;;;;;10368221;28;20026;-48
2022/01/13 19:57:24;;;;;;;11.82;6.30;;;;;;;;;;10367617;28;20038;-48
2022/01/13 20:02:26;;;;;;;20.15;7.32;;;;;;;;;;10367130;28;20482;-50
2022/01/13 20:07:27;;;;;;;12.75;7.00;;;;;;;;;;10367274;28;20442;-52
2022/01/13 20:12:30;;;;;;;13.18;7.15;;;;;;;;;;10363536;28;20069;-47
2022/01/13 20:17:32;;;;;;;9.82;7.10;;;;;;;;;;10363318;28;20516;-50
2022/01/13 20:22:32;;;;;;;17.55;7.50;;;;;;;;;;10366976;28;20466;-52
2022/01/13 20:27:33;;;;;;;18.42;7.15;;;;;;;;;;10370607;28;20062;-50
2022/01/13 20:32:33;;;;;;;24.88;8.73;;;;;;;;;;10374988;28;20037;-52
2022/01/13 20:37:34;;;;;;;23.55;8.20;;;;;;;;;;10374741;28;20041;-57
2022/01/13 20:42:35;;;;;;;22.20;8.20;;;;;;;;;;10374240;28;20093;-56
2022/01/13 20:47:39;;;;;;;15.02;7.50;;;;;;;;;;10374131;28;20121;-48
2022/01/13 20:52:39;;;;;;;14.80;7.10;;;;;;;;;;10374910;28;20026;-49
2022/01/13 20:57:40;;;;;;;15.70;7.72;;;;;;;;;;10373349;28;20033;-49
2022/01/13 21:02:40;;;;;;;24.13;8.87;;;;;;;;;;10373232;28;20034;-45
2022/01/13 21:07:40;;;;;;;15.97;7.30;;;;;;;;;;10372347;28;20854;-50
2022/01/13 21:12:41;;;;;;;15.13;7.27;;;;;;;;;;10372742;28;20037;-59
2022/01/13 21:17:41;;;;;;;14.90;7.38;;;;;;;;;;10369824;28;20459;-50
2022/01/13 21:22:42;;;;;;;18.10;7.23;;;;;;;;;;10370150;28;20524;-48
2022/01/13 21:27:44;;;;;;;21.67;7.60;;;;;;;;;;10372816;28;20459;-49
2022/01/13 21:32:46;;;;;;;14.23;7.13;;;;;;;;;;10372234;28;20025;-50
2022/01/13 21:37:46;;;;;;;16.83;7.22;;;;;;;;;;10371667;28;20022;-49
2022/01/13 21:42:49;;;;;;;20.75;7.90;;;;;;;;;;10372909;28;20112;-50
2022/01/13 21:47:49;;;;;;;15.40;7.22;;;;;;;;;;10372313;28;20120;-49
2022/01/13 21:52:50;;;;;;;18.80;7.70;;;;;;;;;;10372148;28;20461;-49
2022/01/13 21:57:50;;;;;;;16.73;6.82;;;;;;;;;;10372337;28;20424;-52
2022/01/13 22:02:54;;;;;;;18.77;6.72;;;;;;;;;;10371440;28;20452;-50
2022/01/13 22:08:00;;;;;;;14.25;6.88;;;;;;;;;;10370868;28;20029;-50
2022/01/13 22:13:01;;;;;;;14.07;7.13;;;;;;;;;;10371584;28;20065;-49
2022/01/13 22:18:02;;;;;;;23.10;7.03;;;;;;;;;;10370212;28;20069;-48
2022/01/13 22:23:02;;;;;;;11.27;6.82;;;;;;;;;;10368159;28;20446;-48
2022/01/13 22:28:04;;;;;;;9.70;6.10;;;;;;;;;;10370548;28;20116;-48
2022/01/13 22:33:05;;;;;;;17.50;6.82;;;;;;;;;;10367207;28;20030;-48
2022/01/13 22:38:05;;;;;;;11.32;6.30;;;;;;;;;;10370642;28;20033;-48
2022/01/13 22:43:06;;;;;;;12.77;6.63;;;;;;;;;;10369690;28;20080;-48
2022/01/13 22:48:07;;;;;;;12.93;6.13;;;;;;;;;;10369528;28;20477;-47
2022/01/13 22:53:09;;;;;;;10.25;6.53;;;;;;;;;;10369829;28;20056;-47
2022/01/13 22:58:09;;;;;;;10.50;6.18;;;;;;;;;;10369176;28;20437;-47
2022/01/13 23:03:09;;;;;;;12.77;6.43;;;;;;;;;;10369463;28;20100;-47
2022/01/13 23:08:10;;;;;;;13.48;6.50;;;;;;;;;;10368891;28;20542;-47
2022/01/13 23:13:11;;;;;;;12.75;6.70;;;;;;;;;;10367048;28;20034;-48
2022/01/13 23:23:30;;;;;;;13.05;6.88;;;;;;;;;;10368932;28;20038;-47
2022/01/13 23:28:30;;;;;;;12.00;6.10;;;;;;;;;;10367989;28;20025;-47
2022/01/13 23:33:31;;;;;;;12.43;6.03;;;;;;;;;;10365589;28;20530;-47
2022/01/13 23:38:31;;;;;;;11.47;5.93;;;;;;;;;;10365051;28;20955;-47
2022/01/13 23:43:34;;;;;;;10.48;5.88;;;;;;;;;;10367728;28;20432;-47
2022/01/13 23:48:35;;;;;;;10.63;5.68;;;;;;;;;;10368493;28;20181;-47
2022/01/13 23:53:35;;;;;;;11.93;5.82;;;;;;;;;;10368670;28;20499;-47
2022/01/13 23:58:36;;;;;;;10.68;6.47;;;;;;;;;;10367942;28;20088;-48
